Hauptseite
METAR-TAF:

METAR-TAF

Flughäfen :

Flughafen Rouen

Rouen, Frankreich

Breite: 49-23N, Länge: 001-11E, Höhe: 157 m

Beobachtung

Neuester Wetterbericht von vor 29 Minuten, um 00:30 UTC
Wind 7 kt aus Nordost
Temperatur 14°C
Luftfeuchtigkeit 67%
Luftdruck 999 hPa
Sichtweite 10 km oder mehr
keine Wolken unter 1500 m und keine Kumulonimbus oder Gewitterwolken

METAR: LFOP 230030Z AUTO 04007KT CAVOK 14/08 Q0999

Zeit: 02:59 (00:59 UTC)

Prognose

Neuester Wetterbericht von vor 7 Stunden und 59 Minuten, um 17:00 UTC
Gültige Prognose vom 22 um 18 UTC bis 23 um 18 UTC
Wind 5 kt aus Ost/Nordost
Sichtweite 10 km oder mehr
keine Wolken unter 1500 m und keine Kumulonimbus oder Gewitterwolken
Wahrscheinlichkeit 30% :
Zeitweise
vom 23 um 16 UTC bis 23 um 18 UTC
Durchbrochene Bewölkung in der Höhe von 7000 ft, Kumulonimbus.
Gewitter, Regen

TAF: LFOP 221700Z 2218/2318 07005KT CAVOK PROB30 TEMPO 2316/2318 TSRA BKN070CB

Wetterbeobachtungen und Prognosen von mehr als 4000 Flughäfen (METAR und TAF Bericht).

Die verfügbaren Stationen werden durch gelbe und rote Markierungen auf der Karte dargestellt.

Führen Sie die Maus auf sie, um den Namen der Station zu sehen.

Darauf klicken, um die Beobachtung von Wetterbeobachtungen und Prognosen zu sehen.

Um die Karte zu ändern : klicken Sie auf den grünen Tasten mit einem schwarzen Kreuz Zum Vergrößern, auf den grünen Button mit einem Gedankenstrich zu verkleinern, oder auf die grünen Pfeile für benachbarte Karten.


METAR-TAF: